Time;durP1;ratioP1;P1;durP2;ratioP2;P2;SDS_P1;SDS_P2;PMS_P1;PMS_P2;Temp;Humidity;BMP_temperature;BMP_pressure;BME280_temperature;BME280_humidity;BME280_pressure;Samples;Min_cycle;Max_cycle;Signal;HPM_P1;HPM_P2
2022/03/27 00:01:20;;;;;;;;;;;;;;;3.63;83.81;99835.58;1777411;81;20264;-61
2022/03/27 00:04:26;;;;;;;;;;;;;;;3.68;83.75;99833.81;1777966;80;20199;-59
2022/03/27 00:07:31;;;;;;;;;;;;;;;3.72;83.62;99840.13;1777560;80;20512;-59
2022/03/27 00:13:43;;;;;;;;;;;;;;;3.75;83.39;99834.92;1760250;81;20246;-60
2022/03/27 00:16:51;;;;;;;;;;;;;;;3.73;83.22;99832.84;1786677;79;20214;-60
2022/03/27 00:19:57;;;;;;;;;;;;;;;3.74;83.26;99836.76;1811644;79;20213;-60
2022/03/27 00:23:03;;;;;;;;;;;;;;;3.75;83.30;99831.72;1811488;79;20197;-60
2022/03/27 00:26:07;;;;;;;;;;;;;;;3.76;83.33;99823.11;1810862;79;20258;-60
2022/03/27 00:29:15;;;;;;;;;;;;;;;3.76;83.28;99833.94;1811263;79;20181;-59
2022/03/27 00:32:20;;;;;;;;;;;;;;;3.74;83.26;99844.88;1811210;79;20182;-61
2022/03/27 00:35:25;;;;;;;;;;;;;;;3.71;83.35;99838.41;1810129;79;20553;-62
2022/03/27 00:38:29;;;;;;;;;;;;;;;3.73;83.43;99846.38;1811567;79;20166;-63
2022/03/27 00:41:34;;;;;;;;;;;;;;;3.73;83.34;99865.33;1811643;79;20177;-61
2022/03/27 00:44:39;;;;;;;;;;;;;;;3.71;83.31;99872.23;1811348;79;20265;-60
2022/03/27 00:47:45;;;;;;;;;;;;;;;3.73;83.33;99872.95;1811398;79;20187;-60
2022/03/27 00:50:56;;;;;;;;;;;;;;;3.72;83.31;99878.03;1811652;79;20185;-60
2022/03/27 00:54:04;;;;;;;;;;;;;;;3.71;83.37;99882.23;1811580;79;20300;-60
2022/03/27 00:57:11;;;;;;;;;;;;;;;3.67;83.47;99887.08;1811424;79;20245;-59
2022/03/27 01:00:17;;;;;;;;;;;;;;;3.68;83.61;99898.24;1811119;79;20249;-62
2022/03/27 01:03:27;;;;;;;;;;;;;;;3.69;83.70;99895.05;1811327;79;20210;-60
2022/03/27 01:06:44;;;;;;;;;;;;;;;3.68;83.84;99885.23;1811387;79;20569;-60
2022/03/27 01:09:40;;;;;;;;;;;;;;;3.68;84.03;99896.06;1811005;79;20198;-60
2022/03/27 01:12:47;;;;;;;;;;;;;;;3.62;84.09;99888.00;1791967;79;20185;-59
2022/03/27 01:16:04;;;;;;;;;;;;;;;3.55;84.24;99900.38;1811235;79;20510;-59
2022/03/27 01:19:10;;;;;;;;;;;;;;;3.46;84.42;99896.33;1776034;78;20200;-62
2022/03/27 01:22:16;;;;;;;;;;;;;;;3.39;84.64;99896.56;1766833;79;20207;-60
2022/03/27 01:25:23;;;;;;;;;;;;;;;3.32;84.76;99908.44;1766188;81;20226;-61
2022/03/27 01:28:30;;;;;;;;;;;;;;;3.26;84.70;99902.74;1766503;80;20519;-59
2022/03/27 01:31:34;;;;;;;;;;;;;;;3.20;84.70;99909.58;1770187;79;20238;-59
2022/03/27 01:34:40;;;;;;;;;;;;;;;3.15;84.59;99914.55;1766298;80;20690;-61
2022/03/27 01:37:46;;;;;;;;;;;;;;;3.10;84.37;99920.88;1767346;80;20223;-60
2022/03/27 01:40:51;;;;;;;;;;;;;;;3.08;83.72;99931.48;1767694;79;20536;-60
2022/03/27 01:43:56;;;;;;;;;;;;;;;3.04;82.89;99928.20;1749137;81;20207;-62
2022/03/27 01:47:02;;;;;;;;;;;;;;;3.02;82.15;99935.59;1766680;80;20183;-60
2022/03/27 01:50:08;;;;;;;;;;;;;;;2.99;80.90;99937.22;1767122;80;20211;-60
2022/03/27 01:53:12;;;;;;;;;;;;;;;2.98;79.22;99942.28;1766289;79;20211;-61
2022/03/27 01:56:18;;;;;;;;;;;;;;;2.95;78.22;99942.53;1766317;80;20195;-59
2022/03/27 01:59:23;;;;;;;;;;;;;;;2.92;77.14;99964.44;1766589;80;20203;-62
2022/03/27 02:02:30;;;;;;;;;;;;;;;2.91;76.10;99946.52;1765942;81;20175;-61
2022/03/27 02:05:35;;;;;;;;;;;;;;;2.87;75.19;99960.80;1766627;80;20270;-61
2022/03/27 02:08:41;;;;;;;;;;;;;;;2.84;74.13;99962.91;1766262;80;20238;-60
2022/03/27 02:11:50;;;;;;;;;;;;;;;2.81;72.90;99965.89;1768007;79;20195;-60
2022/03/27 02:14:56;;;;;;;;;;;;;;;2.80;71.88;99970.95;1766640;80;20230;-61
2022/03/27 02:18:02;;;;;;;;;;;;;;;2.77;71.23;99973.44;1766262;80;20219;-60
2022/03/27 02:21:09;;;;;;;;;;;;;;;2.74;70.44;99976.91;1817379;79;20194;-61
2022/03/27 02:24:14;;;;;;;;;;;;;;;2.70;69.93;99969.56;1816974;78;20201;-61
2022/03/27 02:27:21;;;;;;;;;;;;;;;2.68;69.63;99990.97;1816993;78;20185;-60
2022/03/27 02:30:28;;;;;;;;;;;;;;;2.65;69.25;99982.62;1817010;78;20221;-61
2022/03/27 02:33:34;;;;;;;;;;;;;;;2.65;68.75;99992.56;1817265;78;20228;-63
2022/03/27 02:36:39;;;;;;;;;;;;;;;2.65;68.10;100003.37;1817417;78;20241;-65
2022/03/27 02:39:47;;;;;;;;;;;;;;;2.67;67.65;100016.26;1798833;78;20723;-62
2022/03/27 02:42:51;;;;;;;;;;;;;;;2.68;66.92;99998.56;1816974;78;20201;-63
2022/03/27 02:45:56;;;;;;;;;;;;;;;2.70;66.27;99996.58;1799304;78;20261;-64
2022/03/27 02:49:03;;;;;;;;;;;;;;;2.73;65.71;99994.09;1816923;78;20249;-61
2022/03/27 02:52:07;;;;;;;;;;;;;;;2.72;65.54;99999.15;1817317;77;20181;-63
2022/03/27 02:55:15;;;;;;;;;;;;;;;2.75;65.22;100002.93;1816896;78;20526;-61
2022/03/27 02:58:20;;;;;;;;;;;;;;;2.73;65.34;99999.01;1817055;78;20236;-62
2022/03/27 03:01:25;;;;;;;;;;;;;;;2.72;65.21;100001.36;1816903;78;20190;-61
2022/03/27 03:04:31;;;;;;;;;;;;;;;2.71;65.23;100010.95;1796866;78;20189;-61
2022/03/27 03:07:38;;;;;;;;;;;;;;;2.71;65.24;100017.72;1816907;78;20170;-65
2022/03/27 03:10:44;;;;;;;;;;;;;;;2.71;65.15;100036.63;1817560;78;20197;-62
2022/03/27 03:13:52;;;;;;;;;;;;;;;2.76;65.08;100022.19;1816749;78;20205;-61
2022/03/27 03:17:00;;;;;;;;;;;;;;;2.80;64.96;100026.35;1816489;78;20260;-63
2022/03/27 03:20:08;;;;;;;;;;;;;;;2.87;64.77;100031.07;1811946;78;20208;-62
2022/03/27 03:23:15;;;;;;;;;;;;;;;2.93;64.52;100034.58;1811730;79;20249;-61
2022/03/27 03:26:22;;;;;;;;;;;;;;;2.97;64.45;100037.38;1811305;79;20214;-62
2022/03/27 03:29:29;;;;;;;;;;;;;;;3.04;64.19;100044.45;1811682;79;20217;-62
2022/03/27 03:32:34;;;;;;;;;;;;;;;3.08;63.99;100035.06;1811651;79;20510;-64
2022/03/27 03:35:41;;;;;;;;;;;;;;;3.12;63.88;100047.34;1809846;79;20324;-64
2022/03/27 03:38:47;;;;;;;;;;;;;;;3.16;63.63;100043.34;1811433;79;20190;-62
2022/03/27 03:41:51;;;;;;;;;;;;;;;3.15;63.27;100038.08;1811658;79;20526;-62
2022/03/27 03:44:58;;;;;;;;;;;;;;;3.11;62.99;100048.30;1811450;79;20201;-62
2022/03/27 03:48:06;;;;;;;;;;;;;;;3.08;62.67;100062.97;1811667;79;20186;-63
2022/03/27 03:51:11;;;;;;;;;;;;;;;3.08;62.70;100057.21;1811154;79;20218;-62
2022/03/27 03:54:16;;;;;;;;;;;;;;;3.08;62.54;100058.56;1811832;79;20257;-64
2022/03/27 03:57:21;;;;;;;;;;;;;;;3.09;62.46;100054.37;1811825;79;20233;-64
2022/03/27 04:00:25;;;;;;;;;;;;;;;3.14;62.34;100058.84;1811701;79;20553;-66
2022/03/27 04:03:36;;;;;;;;;;;;;;;3.18;61.91;100063.48;1811533;79;20257;-61
2022/03/27 04:06:41;;;;;;;;;;;;;;;3.24;62.07;100076.45;1811668;79;20178;-63
2022/03/27 04:09:34;;;;;;;;;;;;;;;3.27;61.60;100088.38;1810946;79;20190;-67
2022/03/27 04:12:40;;;;;;;;;;;;;;;3.29;62.04;100114.29;1811595;79;20200;-67
2022/03/27 04:15:46;;;;;;;;;;;;;;;3.29;62.50;100138.63;1811586;79;20177;-64
2022/03/27 04:18:48;;;;;;;;;;;;;;;3.20;62.33;100093.48;1810882;79;20198;-63
2022/03/27 04:21:41;;;;;;;;;;;;;;;3.09;62.43;100113.86;1809832;78;20190;-62
2022/03/27 04:24:47;;;;;;;;;;;;;;;3.01;62.59;100100.98;1811461;79;20177;-65
2022/03/27 04:27:51;;;;;;;;;;;;;;;2.96;62.21;100115.92;1811517;79;20225;-62
2022/03/27 04:30:56;;;;;;;;;;;;;;;2.92;61.87;100127.48;1811056;79;20454;-61
2022/03/27 04:34:03;;;;;;;;;;;;;;;2.88;61.73;100126.06;1811216;79;20201;-62
2022/03/27 04:37:08;;;;;;;;;;;;;;;2.86;61.83;100128.03;1810991;79;20526;-66
2022/03/27 04:40:18;;;;;;;;;;;;;;;2.87;61.98;100125.67;1811598;79;20515;-66
2022/03/27 04:43:25;;;;;;;;;;;;;;;2.87;61.90;100143.24;1811280;79;20199;-63
2022/03/27 04:46:29;;;;;;;;;;;;;;;2.84;61.94;100142.16;1811728;79;20194;-65
2022/03/27 04:49:35;;;;;;;;;;;;;;;2.81;61.81;100162.70;1811646;79;20316;-63
2022/03/27 04:52:39;;;;;;;;;;;;;;;2.78;61.14;100154.00;1811321;79;20197;-64
2022/03/27 04:55:43;;;;;;;;;;;;;;;2.76;61.12;100143.80;1810599;79;20201;-66
2022/03/27 04:58:50;;;;;;;;;;;;;;;2.77;60.83;100142.83;1811089;79;20213;-61
2022/03/27 05:01:56;;;;;;;;;;;;;;;2.78;60.13;100153.51;1811151;79;20327;-64
2022/03/27 05:05:04;;;;;;;;;;;;;;;2.81;60.10;100151.89;1810935;79;20557;-64
2022/03/27 05:08:11;;;;;;;;;;;;;;;2.86;59.74;100160.46;1810914;79;20205;-65
2022/03/27 05:11:21;;;;;;;;;;;;;;;2.91;58.80;100166.33;1811629;79;20225;-62
2022/03/27 05:14:28;;;;;;;;;;;;;;;3.00;58.82;100184.94;1810930;79;20518;-63
2022/03/27 05:17:37;;;;;;;;;;;;;;;3.12;57.17;100167.66;1790275;78;20274;-63
2022/03/27 05:20:41;;;;;;;;;;;;;;;3.19;56.09;100177.45;1811659;79;20181;-64
2022/03/27 05:23:45;;;;;;;;;;;;;;;3.22;54.84;100194.24;1759770;80;20203;-64
2022/03/27 05:26:54;;;;;;;;;;;;;;;3.20;54.81;100201.66;1770886;80;20230;-67
2022/03/27 05:30:01;;;;;;;;;;;;;;;3.20;54.59;100185.91;1765754;80;20212;-64
2022/03/27 05:33:06;;;;;;;;;;;;;;;3.18;53.93;100190.11;1761168;80;20252;-65
2022/03/27 05:36:12;;;;;;;;;;;;;;;3.20;54.21;100190.84;1760707;80;20216;-60
2022/03/27 05:39:17;;;;;;;;;;;;;;;3.26;54.60;100225.45;1765597;81;20272;-59
2022/03/27 05:42:22;;;;;;;;;;;;;;;3.44;54.59;100201.34;1760605;81;20271;-60
2022/03/27 05:45:28;;;;;;;;;;;;;;;3.59;53.38;100199.48;1760320;81;20216;-59
2022/03/27 05:48:33;;;;;;;;;;;;;;;3.70;53.24;100207.51;1761021;81;20231;-60
2022/03/27 05:51:37;;;;;;;;;;;;;;;3.78;52.80;100243.36;1760112;81;20216;-60
2022/03/27 05:54:41;;;;;;;;;;;;;;;3.77;52.49;100220.88;1760420;81;20232;-63
2022/03/27 05:57:47;;;;;;;;;;;;;;;3.80;52.75;100246.31;1760968;81;20207;-61
2022/03/27 06:00:51;;;;;;;;;;;;;;;3.79;52.50;100225.62;1760411;81;20214;-61
2022/03/27 06:03:57;;;;;;;;;;;;;;;3.75;52.63;100228.27;1762684;81;20218;-62
2022/03/27 06:07:01;;;;;;;;;;;;;;;3.78;52.36;100245.58;1770427;80;20643;-61
2022/03/27 06:10:07;;;;;;;;;;;;;;;3.75;52.57;100241.80;1769358;81;20226;-62
2022/03/27 06:13:14;;;;;;;;;;;;;;;3.74;52.14;100235.17;1770509;80;20254;-62
2022/03/27 06:16:20;;;;;;;;;;;;;;;3.78;53.11;100239.30;1770950;80;20593;-63
2022/03/27 06:19:24;;;;;;;;;;;;;;;3.86;53.19;100243.05;1770945;81;20250;-68
2022/03/27 06:22:30;;;;;;;;;;;;;;;3.90;52.92;100237.70;1770773;80;20594;-64
2022/03/27 06:25:38;;;;;;;;;;;;;;;3.80;53.38;100297.75;1816242;77;20197;-67
2022/03/27 06:28:43;;;;;;;;;;;;;;;3.64;53.93;100393.45;1812768;79;20269;-65
2022/03/27 06:31:48;;;;;;;;;;;;;;;3.32;55.74;100303.36;1813413;79;20217;-68
2022/03/27 06:34:53;;;;;;;;;;;;;;;3.03;55.72;100298.22;1813199;79;20233;-67
2022/03/27 06:38:01;;;;;;;;;;;;;;;2.84;54.74;100288.12;1813708;79;20518;-64
2022/03/27 06:41:07;;;;;;;;;;;;;;;2.72;55.13;100319.38;1814341;79;20177;-65
2022/03/27 06:44:14;;;;;;;;;;;;;;;2.61;56.12;100303.20;1813992;79;20185;-67
2022/03/27 06:47:21;;;;;;;;;;;;;;;2.54;58.99;100321.75;1814570;79;20217;-61
2022/03/27 06:50:27;;;;;;;;;;;;;;;2.59;60.19;100335.75;1813184;79;20237;-66
2022/03/27 06:53:33;;;;;;;;;;;;;;;2.74;60.18;100324.16;1814606;79;20185;-65
2022/03/27 06:56:41;;;;;;;;;;;;;;;2.80;58.34;100317.77;1814173;79;20185;-66
2022/03/27 07:03:14;;;;;;;;;;;;;;;3.02;55.97;100351.95;1801546;79;20600;-65
2022/03/27 07:06:24;;;;;;;;;;;;;;;3.19;55.07;100321.63;1780954;79;20245;-64
2022/03/27 07:09:30;;;;;;;;;;;;;;;3.36;54.65;100319.71;1812562;78;20189;-65
2022/03/27 07:12:38;;;;;;;;;;;;;;;3.53;51.64;100326.36;1806899;79;20181;-65
2022/03/27 07:15:46;;;;;;;;;;;;;;;3.49;50.43;100335.22;1805249;79;20225;-64
2022/03/27 07:18:57;;;;;;;;;;;;;;;3.40;48.93;100335.16;1801614;79;20185;-65
2022/03/27 07:22:01;;;;;;;;;;;;;;;3.37;48.24;100371.46;1800861;80;20197;-66
2022/03/27 07:25:10;;;;;;;;;;;;;;;3.25;47.47;100358.13;1797662;79;20266;-63
2022/03/27 07:28:18;;;;;;;;;;;;;;;3.20;46.70;100367.12;1798855;79;20209;-63
2022/03/27 07:31:25;;;;;;;;;;;;;;;3.13;45.09;100374.89;1798532;80;20275;-65
2022/03/27 07:34:33;;;;;;;;;;;;;;;3.08;44.69;100360.05;1798951;79;20178;-66
2022/03/27 07:37:41;;;;;;;;;;;;;;;3.08;43.03;100383.88;1798830;80;20534;-63
2022/03/27 07:40:45;;;;;;;;;;;;;;;3.17;43.83;100383.13;1793496;79;20583;-62
2022/03/27 07:43:53;;;;;;;;;;;;;;;3.25;42.94;100389.23;1768549;80;20218;-65
2022/03/27 07:46:59;;;;;;;;;;;;;;;3.23;43.82;100383.08;1768052;81;20203;-66
2022/03/27 07:50:05;;;;;;;;;;;;;;;3.20;42.80;100390.11;1768300;80;20219;-66
2022/03/27 07:53:11;;;;;;;;;;;;;;;3.20;42.85;100406.34;1768155;81;20223;-63
2022/03/27 07:56:17;;;;;;;;;;;;;;;3.26;42.36;100413.44;1769567;80;20684;-62
2022/03/27 07:59:23;;;;;;;;;;;;;;;3.31;41.83;100420.69;1768872;81;20586;-64
2022/03/27 08:02:28;;;;;;;;;;;;;;;3.37;42.52;100421.52;1773753;80;20238;-64
2022/03/27 08:05:35;;;;;;;;;;;;;;;3.56;43.50;100436.55;1768192;81;20238;-66
2022/03/27 08:08:41;;;;;;;;;;;;;;;3.67;42.24;100417.55;1769888;80;20211;-64
2022/03/27 08:11:49;;;;;;;;;;;;;;;3.74;42.16;100419.23;1768786;80;20231;-62
2022/03/27 08:14:57;;;;;;;;;;;;;;;3.83;42.50;100457.70;1768912;81;20214;-65
2022/03/27 08:18:03;;;;;;;;;;;;;;;3.83;41.41;100440.09;1800185;79;20212;-63
2022/03/27 08:21:11;;;;;;;;;;;;;;;3.80;40.85;100453.42;1798953;79;20214;-64
2022/03/27 08:24:17;;;;;;;;;;;;;;;3.84;41.20;100511.71;1759277;81;20279;-66
2022/03/27 08:27:23;;;;;;;;;;;;;;;3.77;41.29;100475.83;1745633;82;20253;-63
2022/03/27 08:30:28;;;;;;;;;;;;;;;3.62;42.05;100475.27;1728865;82;20261;-65
2022/03/27 08:33:36;;;;;;;;;;;;;;;3.55;43.46;100452.41;1745892;82;20528;-67
2022/03/27 08:36:40;;;;;;;;;;;;;;;3.48;43.43;100463.89;1745175;82;20197;-67
2022/03/27 08:39:45;;;;;;;;;;;;;;;3.32;43.26;100482.38;1745505;82;20257;-66
2022/03/27 08:42:53;;;;;;;;;;;;;;;3.20;42.89;100477.52;1762626;81;20196;-65
2022/03/27 08:45:57;;;;;;;;;;;;;;;3.32;42.67;100484.61;1771265;81;20231;-65
2022/03/27 08:49:04;;;;;;;;;;;;;;;3.62;42.25;100478.46;1771895;80;20211;-64
2022/03/27 08:52:24;;;;;;;;;;;;;;;3.84;41.70;100483.77;1772102;80;20591;-66
2022/03/27 08:55:29;;;;;;;;;;;;;;;3.90;41.73;100452.13;1771836;80;20243;-64
2022/03/27 08:58:44;;;;;;;;;;;;;;;3.92;43.29;100478.08;1772494;80;20215;-64
2022/03/27 09:01:51;;;;;;;;;;;;;;;3.89;42.24;100481.05;1775614;80;20180;-64
2022/03/27 09:05:00;;;;;;;;;;;;;;;3.83;41.59;100505.95;1760781;80;20206;-63
2022/03/27 09:08:07;;;;;;;;;;;;;;;3.74;41.74;100502.64;1776249;80;20211;-63
2022/03/27 09:11:15;;;;;;;;;;;;;;;3.78;42.29;100496.00;1742733;80;20243;-66
2022/03/27 09:14:23;;;;;;;;;;;;;;;3.87;42.87;100507.39;1760571;80;20252;-66
2022/03/27 09:17:31;;;;;;;;;;;;;;;3.96;43.48;100501.70;1761776;80;20238;-63
2022/03/27 09:20:43;;;;;;;;;;;;;;;4.06;43.33;100500.77;1777447;81;20259;-66
2022/03/27 09:23:52;;;;;;;;;;;;;;;4.16;43.86;100493.58;1778236;80;20215;-64
2022/03/27 09:27:11;;;;;;;;;;;;;;;4.21;42.81;100504.87;1794233;78;20268;-64
2022/03/27 09:30:17;;;;;;;;;;;;;;;4.22;43.09;100484.91;1811638;79;20225;-65
2022/03/27 09:33:49;;;;;;;;;;;;;;;4.31;43.07;100494.94;1811897;79;20513;-62
2022/03/27 09:37:00;;;;;;;;;;;;;;;4.39;42.67;100504.61;1813199;79;20561;-64
2022/03/27 09:40:08;;;;;;;;;;;;;;;4.48;43.30;100486.22;1813546;79;20245;-65
2022/03/27 09:43:21;;;;;;;;;;;;;;;4.86;43.61;100506.34;1813961;79;20320;-62
2022/03/27 09:46:31;;;;;;;;;;;;;;;5.01;40.82;100502.28;1814210;79;20273;-63
2022/03/27 09:49:50;;;;;;;;;;;;;;;4.94;40.58;100518.73;1813625;79;20213;-64
2022/03/27 09:52:56;;;;;;;;;;;;;;;4.76;41.65;100511.73;1813936;79;20553;-62
2022/03/27 09:56:08;;;;;;;;;;;;;;;4.60;42.42;100592.69;1813931;79;20206;-62
2022/03/27 09:59:36;;;;;;;;;;;;;;;4.15;45.93;100560.08;1813973;79;20292;-64
2022/03/27 10:02:41;;;;;;;;;;;;;;;3.69;48.68;100545.51;1814022;79;20213;-66
2022/03/27 10:05:47;;;;;;;;;;;;;;;3.59;49.63;100553.16;1813182;79;20277;-65
2022/03/27 10:08:54;;;;;;;;;;;;;;;3.59;48.21;100552.67;1789242;79;20523;-63
2022/03/27 10:12:01;;;;;;;;;;;;;;;3.74;47.73;100542.41;1783702;80;20206;-64
2022/03/27 10:15:15;;;;;;;;;;;;;;;4.01;45.60;100563.10;1785080;80;20179;-67
2022/03/27 10:18:25;;;;;;;;;;;;;;;4.34;45.10;100548.86;1811867;79;20202;-63
2022/03/27 10:21:31;;;;;;;;;;;;;;;4.47;47.30;100587.47;1814460;79;20189;-64
2022/03/27 10:24:37;;;;;;;;;;;;;;;4.15;52.10;100667.08;1814969;77;20633;-64
2022/03/27 10:27:44;;;;;;;;;;;;;;;3.60;59.32;100596.84;1792430;79;20294;-67
2022/03/27 10:30:50;;;;;;;;;;;;;;;3.28;61.22;100591.36;1750148;81;20230;-63
2022/03/27 10:34:00;;;;;;;;;;;;;;;3.23;62.25;100582.75;1767465;81;20219;-62
2022/03/27 10:37:09;;;;;;;;;;;;;;;3.43;61.06;100573.86;1767021;80;20567;-64
2022/03/27 10:40:29;;;;;;;;;;;;;;;3.72;59.54;100575.52;1737726;82;20265;-67
2022/03/27 10:43:40;;;;;;;;;;;;;;;3.98;54.69;100573.68;1681609;82;20193;-64
2022/03/27 10:46:47;;;;;;;;;;;;;;;4.10;52.61;100611.94;1739872;81;20189;-63
2022/03/27 10:50:12;;;;;;;;;;;;;;;3.87;56.23;100603.52;1721626;82;20286;-62
2022/03/27 10:53:20;;;;;;;;;;;;;;;3.66;58.19;100616.15;1738478;82;20273;-63
2022/03/27 10:56:38;;;;;;;;;;;;;;;3.68;58.72;100592.50;1738362;81;20296;-62
2022/03/27 10:59:49;;;;;;;;;;;;;;;3.86;55.19;100616.70;1741584;81;20223;-63
2022/03/27 11:02:57;;;;;;;;;;;;;;;4.02;51.71;100622.55;1739693;80;20547;-65
2022/03/27 11:06:09;;;;;;;;;;;;;;;4.04;51.26;100605.66;1748748;81;20234;-65
2022/03/27 11:09:16;;;;;;;;;;;;;;;3.97;50.51;100615.30;1769112;80;20207;-62
2022/03/27 11:12:34;;;;;;;;;;;;;;;3.78;51.95;100638.61;1751899;79;20211;-65
2022/03/27 11:15:42;;;;;;;;;;;;;;;3.62;54.09;100657.97;1744252;81;20219;-62
2022/03/27 11:18:49;;;;;;;;;;;;;;;3.52;55.11;100635.33;1758133;81;20203;-65
2022/03/27 11:21:59;;;;;;;;;;;;;;;3.44;53.51;100648.62;1768595;81;20266;-63
2022/03/27 11:25:36;;;;;;;;;;;;;;;3.46;52.66;100615.55;1768913;80;20330;-62
2022/03/27 11:28:53;;;;;;;;;;;;;;;3.80;52.08;100618.56;1767050;79;20266;-61
2022/03/27 11:32:15;;;;;;;;;;;;;;;4.03;49.98;100598.53;1765522;80;20215;-62
2022/03/27 11:35:25;;;;;;;;;;;;;;;4.15;50.31;100673.37;1764881;79;20276;-63
2022/03/27 11:38:34;;;;;;;;;;;;;;;4.15;50.67;100616.48;1764969;81;20410;-63
2022/03/27 11:41:44;;;;;;;;;;;;;;;4.16;49.79;100610.55;1765096;81;20614;-65
2022/03/27 11:45:10;;;;;;;;;;;;;;;4.37;48.28;100618.22;1765740;80;20254;-65
2022/03/27 11:48:25;;;;;;;;;;;;;;;4.60;46.64;100615.24;1766071;80;20219;-63
2022/03/27 11:51:32;;;;;;;;;;;;;;;4.46;47.70;100657.59;1766067;79;20602;-62
2022/03/27 11:54:37;;;;;;;;;;;;;;;3.96;56.91;100660.13;1763697;79;20238;-67
2022/03/27 11:58:00;;;;;;;;;;;;;;;3.38;57.32;100659.11;1765646;80;20243;-62
2022/03/27 12:01:09;;;;;;;;;;;;;;;3.08;55.89;100675.92;1766677;79;20299;-67
2022/03/27 12:04:21;;;;;;;;;;;;;;;2.90;54.66;100672.83;1750151;81;20231;-64
2022/03/27 12:07:26;;;;;;;;;;;;;;;2.73;55.76;100677.83;1766211;80;20218;-60
2022/03/27 12:10:34;;;;;;;;;;;;;;;2.62;56.18;100662.93;1767501;80;20231;-61
2022/03/27 12:13:48;;;;;;;;;;;;;;;2.74;56.87;100652.54;1765976;80;20218;-66
2022/03/27 12:16:57;;;;;;;;;;;;;;;3.07;57.17;100652.58;1765963;80;20581;-64
2022/03/27 12:20:08;;;;;;;;;;;;;;;3.53;56.25;100645.19;1747516;81;20218;-60
2022/03/27 12:23:29;;;;;;;;;;;;;;;3.78;55.58;100651.67;1766835;80;20183;-64
2022/03/27 12:30:10;;;;;;;;;;;;;;;3.45;57.07;100745.55;1761018;80;20220;-62
2022/03/27 12:33:16;;;;;;;;;;;;;;;3.07;54.88;100722.89;1792577;79;20281;-66
2022/03/27 12:36:22;;;;;;;;;;;;;;;3.22;54.86;100720.83;1803240;79;20597;-66
2022/03/27 12:39:27;;;;;;;;;;;;;;;3.31;55.56;100733.62;1803781;79;20182;-64
2022/03/27 12:42:43;;;;;;;;;;;;;;;3.26;57.17;100706.06;1803861;79;20245;-68
2022/03/27 12:45:48;;;;;;;;;;;;;;;3.24;57.56;100713.44;1803527;79;20202;-65
2022/03/27 12:49:08;;;;;;;;;;;;;;;3.37;57.78;100705.59;1778874;80;20558;-65
2022/03/27 12:52:18;;;;;;;;;;;;;;;3.62;56.00;100722.05;1780184;80;20212;-64
2022/03/27 12:55:26;;;;;;;;;;;;;;;3.99;51.46;100739.76;1781690;79;20581;-65
2022/03/27 12:58:47;;;;;;;;;;;;;;;4.21;48.83;100704.01;1782774;79;20201;-66
2022/03/27 13:01:52;;;;;;;;;;;;;;;4.18;45.90;100731.36;1780895;80;20233;-62
2022/03/27 13:05:07;;;;;;;;;;;;;;;4.01;44.28;100742.69;1784583;79;20253;-63
2022/03/27 13:08:14;;;;;;;;;;;;;;;3.72;45.51;100755.05;1782003;80;20534;-63
2022/03/27 13:11:30;;;;;;;;;;;;;;;3.61;45.35;100745.58;1781319;80;20209;-66
2022/03/27 13:14:42;;;;;;;;;;;;;;;3.89;45.62;100742.36;1773163;79;20252;-67
2022/03/27 13:17:49;;;;;;;;;;;;;;;4.17;44.09;100761.28;1781305;79;20212;-64
2022/03/27 13:20:55;;;;;;;;;;;;;;;4.05;43.31;100736.55;1782703;79;20205;-69
2022/03/27 13:24:00;;;;;;;;;;;;;;;4.01;43.36;100748.11;1771465;80;20189;-62
2022/03/27 13:27:11;;;;;;;;;;;;;;;3.94;42.90;100763.16;1781401;80;20585;-65
2022/03/27 13:30:18;;;;;;;;;;;;;;;3.82;41.78;100784.44;1787871;79;20210;-64
2022/03/27 13:33:23;;;;;;;;;;;;;;;3.68;42.69;100753.56;1800202;79;20245;-64
2022/03/27 13:36:25;;;;;;;;;;;;;;;3.65;44.13;100768.70;1800407;79;20553;-66
2022/03/27 13:39:19;;;;;;;;;;;;;;;3.75;44.90;100768.34;1800280;79;20597;-67
2022/03/27 13:45:17;;;;;;;;;;;;;;;4.16;44.17;100771.25;1799360;79;20316;-66
2022/03/27 13:48:07;;;;;;;;;;;;;;;4.21;44.12;100781.23;1799381;79;20214;-65
2022/03/27 13:51:03;;;;;;;;;;;;;;;4.08;46.65;100793.17;1800152;79;20194;-63
2022/03/27 13:54:08;;;;;;;;;;;;;;;3.81;46.81;100785.44;1800010;79;20317;-63
2022/03/27 13:57:15;;;;;;;;;;;;;;;3.67;47.02;100796.52;1782055;79;20194;-62
2022/03/27 14:00:24;;;;;;;;;;;;;;;3.55;48.44;100810.16;1804451;79;20253;-62
2022/03/27 14:03:32;;;;;;;;;;;;;;;3.41;48.15;100805.81;1810360;79;20205;-63
2022/03/27 14:06:40;;;;;;;;;;;;;;;3.45;47.16;100826.26;1808934;79;20253;-63
2022/03/27 14:09:50;;;;;;;;;;;;;;;3.49;46.27;100788.48;1811263;79;20419;-65
2022/03/27 14:12:56;;;;;;;;;;;;;;;3.40;46.29;100805.94;1809816;79;20533;-63
2022/03/27 14:16:06;;;;;;;;;;;;;;;3.41;46.12;100811.73;1791763;79;20197;-63
2022/03/27 14:19:12;;;;;;;;;;;;;;;3.66;45.95;100804.28;1792133;79;20213;-63
2022/03/27 14:22:17;;;;;;;;;;;;;;;3.83;44.76;100805.14;1810298;79;20209;-64
2022/03/27 14:25:22;;;;;;;;;;;;;;;3.96;44.32;100807.72;1811037;79;20233;-67
2022/03/27 14:28:33;;;;;;;;;;;;;;;4.12;42.86;100834.78;1810258;79;20205;-62
2022/03/27 14:31:42;;;;;;;;;;;;;;;4.09;42.28;100810.66;1806744;79;20277;-64
2022/03/27 14:34:47;;;;;;;;;;;;;;;4.01;42.25;100842.91;1793744;79;20202;-66
2022/03/27 14:37:57;;;;;;;;;;;;;;;3.83;43.21;100875.54;1811311;79;20553;-65
2022/03/27 14:41:03;;;;;;;;;;;;;;;3.55;44.47;100935.50;1790399;79;20683;-64
2022/03/27 14:44:14;;;;;;;;;;;;;;;3.32;45.17;100852.54;1809668;79;20198;-64
2022/03/27 14:47:21;;;;;;;;;;;;;;;3.28;45.94;100890.30;1810125;79;20241;-63
2022/03/27 14:50:32;;;;;;;;;;;;;;;3.51;46.22;100877.19;1811269;79;20225;-64
2022/03/27 14:57:02;;;;;;;;;;;;;;;3.47;46.70;100866.73;1810344;79;20225;-65
2022/03/27 15:00:12;;;;;;;;;;;;;;;3.37;46.90;100878.75;1796906;79;20205;-62
2022/03/27 15:03:20;;;;;;;;;;;;;;;3.40;46.74;100886.63;1815565;78;20313;-63
2022/03/27 15:06:28;;;;;;;;;;;;;;;3.44;46.34;100878.63;1808354;79;20179;-62
2022/03/27 15:09:34;;;;;;;;;;;;;;;3.39;46.03;100883.56;1792248;79;20215;-62
2022/03/27 15:12:41;;;;;;;;;;;;;;;3.41;45.98;100888.34;1789010;79;20591;-67
2022/03/27 15:15:47;;;;;;;;;;;;;;;3.40;45.88;100895.23;1809303;79;20191;-64
2022/03/27 15:18:56;;;;;;;;;;;;;;;3.31;46.21;100892.76;1808944;79;20235;-66
2022/03/27 15:21:59;;;;;;;;;;;;;;;3.40;45.76;100906.05;1808600;79;20266;-64
2022/03/27 15:25:11;;;;;;;;;;;;;;;3.40;44.80;100900.64;1807677;79;20484;-64
2022/03/27 15:28:15;;;;;;;;;;;;;;;3.40;44.68;100912.81;1810426;78;20211;-64
2022/03/27 15:31:22;;;;;;;;;;;;;;;3.30;44.47;100919.42;1806078;79;20203;-65
2022/03/27 15:34:30;;;;;;;;;;;;;;;3.16;44.36;100922.31;1803539;79;20583;-64
2022/03/27 15:37:38;;;;;;;;;;;;;;;3.08;44.84;100961.24;1804630;79;20592;-63
2022/03/27 15:40:45;;;;;;;;;;;;;;;2.98;45.54;100966.47;1801576;79;20534;-65
2022/03/27 15:43:54;;;;;;;;;;;;;;;2.84;47.09;100965.28;1757028;80;20236;-67
2022/03/27 15:47:05;;;;;;;;;;;;;;;2.70;48.87;100953.27;1772006;80;20300;-63
2022/03/27 15:50:13;;;;;;;;;;;;;;;2.59;48.03;100948.26;1772362;80;20208;-63
2022/03/27 15:53:22;;;;;;;;;;;;;;;2.60;48.10;100960.81;1772333;80;20256;-62
2022/03/27 15:56:29;;;;;;;;;;;;;;;2.59;48.53;100968.05;1772542;80;20187;-63
2022/03/27 15:59:39;;;;;;;;;;;;;;;2.47;48.68;100972.13;1772598;80;20179;-64
2022/03/27 16:02:47;;;;;;;;;;;;;;;2.37;48.53;100979.16;1772149;80;20211;-63
2022/03/27 16:05:56;;;;;;;;;;;;;;;2.28;47.82;100981.17;1771969;80;20283;-63
2022/03/27 16:09:04;;;;;;;;;;;;;;;2.20;47.46;100983.55;1753666;80;20246;-63
2022/03/27 16:12:14;;;;;;;;;;;;;;;2.12;47.45;100992.20;1737385;80;20251;-64
2022/03/27 16:15:24;;;;;;;;;;;;;;;2.06;46.94;100987.70;1771946;80;20267;-64
2022/03/27 16:18:30;;;;;;;;;;;;;;;2.02;46.67;100999.67;1772593;80;20196;-64
2022/03/27 16:21:38;;;;;;;;;;;;;;;1.98;46.80;101009.84;1756245;81;20586;-66
2022/03/27 16:27:58;;;;;;;;;;;;;;;1.88;47.22;101003.81;1681620;85;20219;-63
2022/03/27 16:31:08;;;;;;;;;;;;;;;1.80;47.42;101007.05;1674304;84;20239;-62
2022/03/27 16:34:13;;;;;;;;;;;;;;;1.75;47.69;101021.81;1673520;86;20239;-63
2022/03/27 16:37:23;;;;;;;;;;;;;;;1.70;47.97;101024.83;1667903;83;20262;-64